Sagle, Idaho
Current Conditions -  °F | °C
As of 6:15 PM on Friday 19 Dec 2014 (Local Time) from KSZT Reporting Station
Light Rain Light Rain  
Wind Chill: 33°   Ceiling: 1700
Heat Index: 37°   Visibility: 10mi
Dew Point: 37°   Wind: 6mph
Humidity: 100%   Direction: 200°SSW
Pressure: 29.95"   Gusts: NA
Location:  48.2°N, 116.55°W
Report Text: KSZT 200215Z AUTO 20005KT 10SM -RA OVC017 03/03 A2995 RMK AO2
Loading
Personal Weather Stations






























Interactive Weather Map New forecast layout! Learn more

10-Day Weather Forecast

Advertisements
Track Severe Weather on mobile